Time;durP1;ratioP1;P1;durP2;ratioP2;P2;SDS_P1;SDS_P2;PMS_P1;PMS_P2;Temp;Humidity;BMP_temperature;BMP_pressure;BME280_temperature;BME280_humidity;BME280_pressure;Samples;Min_cycle;Max_cycle;Signal;HPM_P1;HPM_P2
2021/04/26 00:01:06;;;;;;;8.27;3.70;;;;;;;10.95;36.17;98361.06;8398031;28;20203;-68
2021/04/26 00:05:11;;;;;;;9.00;4.00;;;;;;;10.90;36.73;98361.22;8398275;28;20199;-68
2021/04/26 00:09:12;;;;;;;6.13;3.60;;;;;;;10.84;36.74;98358.03;8398234;28;20219;-68
2021/04/26 00:13:15;;;;;;;11.03;3.20;;;;;;;10.84;36.43;98356.28;8398136;28;20195;-68
2021/04/26 00:17:17;;;;;;;6.60;3.70;;;;;;;10.87;36.51;98358.78;8397745;28;20581;-68
2021/04/26 00:21:20;;;;;;;7.63;4.20;;;;;;;10.78;36.65;98358.28;8397696;28;20246;-68
2021/04/26 00:25:22;;;;;;;4.77;3.50;;;;;;;10.77;36.80;98354.84;8397117;28;20206;-68
2021/04/26 00:29:25;;;;;;;6.53;3.77;;;;;;;10.85;36.35;98350.22;8397426;28;20686;-69
2021/04/26 00:33:27;;;;;;;13.27;4.10;;;;;;;10.73;36.64;98348.09;8398260;28;20242;-69
2021/04/26 00:37:30;;;;;;;6.33;3.60;;;;;;;10.72;36.53;98342.06;8397135;28;20230;-68
2021/04/26 00:41:32;;;;;;;6.23;3.20;;;;;;;10.73;36.28;98348.91;8396984;28;20218;-68
2021/04/26 00:45:33;;;;;;;6.23;3.53;;;;;;;10.71;36.64;98342.97;8396876;28;20199;-68
2021/04/26 00:49:35;;;;;;;6.00;2.83;;;;;;;10.57;36.49;98338.31;8396656;28;20230;-68
2021/04/26 00:53:38;;;;;;;6.43;3.20;;;;;;;10.37;36.44;98333.88;8396604;28;20203;-69
2021/04/26 00:57:40;;;;;;;6.27;3.33;;;;;;;10.33;36.86;98328.91;8396970;28;20601;-69
2021/04/26 01:01:42;;;;;;;10.73;3.60;;;;;;;10.31;36.88;98326.34;8396918;28;20195;-68
2021/04/26 01:05:44;;;;;;;6.87;3.40;;;;;;;10.46;36.61;98326.69;8396759;28;20233;-68
2021/04/26 01:09:47;;;;;;;8.83;3.60;;;;;;;10.51;36.77;98328.19;8396178;28;20230;-68
2021/04/26 01:13:58;;;;;;;9.63;3.70;;;;;;;10.34;36.71;98323.66;8396503;28;20211;-68
2021/04/26 01:18:03;;;;;;;6.30;3.63;;;;;;;10.34;36.85;98323.66;8395961;28;20295;-68
2021/04/26 01:22:34;;;;;;;5.60;3.60;;;;;;;10.31;36.92;98325.53;8396010;28;20199;-68
2021/04/26 01:26:53;;;;;;;6.30;3.80;;;;;;;10.40;36.90;98314.81;8395951;28;20199;-69
2021/04/26 01:30:59;;;;;;;5.70;3.53;;;;;;;10.30;36.78;98322.09;8395814;28;20238;-68
2021/04/26 01:35:03;;;;;;;9.30;3.77;;;;;;;10.31;37.23;98312.56;8396088;28;20211;-68
2021/04/26 01:39:06;;;;;;;8.57;3.87;;;;;;;10.30;36.66;98303.97;8403197;28;20662;-69
2021/04/26 01:43:09;;;;;;;9.03;3.87;;;;;;;10.33;36.83;98298.66;8406790;28;20560;-68
2021/04/26 01:47:11;;;;;;;6.43;3.43;;;;;;;10.05;37.46;98298.84;8406715;28;20246;-68
2021/04/26 01:51:15;;;;;;;5.73;3.40;;;;;;;9.91;37.36;98301.91;8406764;28;20222;-68
2021/04/26 01:55:19;;;;;;;7.40;3.60;;;;;;;9.83;37.60;98291.00;8406752;28;20214;-68
2021/04/26 01:59:21;;;;;;;8.97;3.90;;;;;;;9.90;37.40;98283.84;8405348;28;20206;-68
2021/04/26 02:03:25;;;;;;;7.17;3.50;;;;;;;10.05;37.25;98285.91;8373672;28;20216;-68
2021/04/26 02:07:28;;;;;;;5.67;3.70;;;;;;;9.93;37.87;98279.41;8373425;28;20686;-68
2021/04/26 02:11:30;;;;;;;7.10;4.07;;;;;;;9.68;37.61;98276.03;8373128;28;20683;-69
2021/04/26 02:15:32;;;;;;;6.80;3.63;;;;;;;9.73;38.16;98279.31;8373020;28;20275;-68
2021/04/26 02:19:35;;;;;;;5.67;3.70;;;;;;;9.89;37.79;98271.84;8373423;28;20669;-68
2021/04/26 02:23:38;;;;;;;7.67;4.10;;;;;;;9.82;37.49;98262.59;8372964;28;20200;-68
2021/04/26 02:27:40;;;;;;;6.90;3.80;;;;;;;9.84;37.60;98263.38;8372846;28;20203;-68
2021/04/26 02:31:45;;;;;;;7.90;3.90;;;;;;;9.81;37.64;98251.44;8389284;28;20261;-68
2021/04/26 02:35:49;;;;;;;7.57;3.77;;;;;;;9.72;38.50;98246.59;8405660;28;20212;-68
2021/04/26 02:39:54;;;;;;;10.37;4.00;;;;;;;9.75;38.58;98238.72;8405948;28;20202;-68
2021/04/26 02:44:00;;;;;;;10.50;4.33;;;;;;;9.56;39.03;98228.22;8406111;28;20203;-68
2021/04/26 02:48:02;;;;;;;8.70;4.30;;;;;;;9.63;38.82;98221.06;8406041;28;20550;-68
2021/04/26 02:52:05;;;;;;;9.10;4.23;;;;;;;9.61;38.66;98215.09;8399920;28;20297;-68
2021/04/26 02:56:11;;;;;;;6.93;3.53;;;;;;;9.58;38.82;98210.88;8400713;28;20211;-68
2021/04/26 03:00:16;;;;;;;6.27;3.87;;;;;;;9.58;38.77;98214.31;8400186;28;20564;-68
2021/04/26 03:04:19;;;;;;;7.97;3.83;;;;;;;9.54;39.05;98209.31;8400089;28;20199;-68
2021/04/26 03:08:22;;;;;;;8.97;4.50;;;;;;;9.43;39.03;98196.78;8400250;28;20195;-68
2021/04/26 03:12:25;;;;;;;9.10;4.40;;;;;;;9.44;38.78;98188.09;8400066;28;20591;-67
2021/04/26 03:16:28;;;;;;;11.10;5.13;;;;;;;9.36;38.89;98190.13;8400694;28;20219;-68
2021/04/26 03:20:30;;;;;;;10.30;4.30;;;;;;;9.32;39.13;98180.81;8400318;28;20218;-68
2021/04/26 03:24:33;;;;;;;7.63;3.90;;;;;;;9.27;39.04;98174.94;8400380;28;20217;-68
2021/04/26 03:28:38;;;;;;;5.97;3.90;;;;;;;9.20;39.17;98169.16;8390855;28;20230;-68
2021/04/26 03:32:42;;;;;;;8.13;3.83;;;;;;;9.08;39.30;98173.03;8367514;28;20255;-68
2021/04/26 03:36:44;;;;;;;5.57;4.10;;;;;;;9.17;39.56;98159.75;8367126;28;20211;-68
2021/04/26 03:40:46;;;;;;;8.57;3.43;;;;;;;9.15;39.19;98146.06;8367707;28;20215;-68
2021/04/26 03:44:50;;;;;;;4.83;3.60;;;;;;;9.11;39.31;98144.50;8367639;28;20207;-68
2021/04/26 03:48:52;;;;;;;7.83;4.03;;;;;;;8.83;39.53;98139.44;8367856;28;20488;-68
2021/04/26 03:52:58;;;;;;;9.23;4.17;;;;;;;9.05;39.01;98136.97;8367798;28;20191;-68
2021/04/26 03:57:00;;;;;;;5.87;3.60;;;;;;;9.07;39.01;98144.66;8366362;28;20651;-68
2021/04/26 04:01:03;;;;;;;7.17;3.70;;;;;;;9.05;38.95;98142.13;8365071;28;20204;-68
2021/04/26 04:05:06;;;;;;;9.40;4.47;;;;;;;9.02;39.18;98138.81;8366973;28;20649;-68
2021/04/26 04:09:08;;;;;;;10.53;4.53;;;;;;;8.84;39.87;98135.13;8365660;28;20246;-68
2021/04/26 04:13:10;;;;;;;7.77;3.90;;;;;;;8.70;40.19;98139.03;8366764;28;20207;-68
2021/04/26 04:17:13;;;;;;;9.20;4.37;;;;;;;8.21;41.17;98145.78;8365816;28;20226;-68
2021/04/26 04:21:15;;;;;;;14.67;4.40;;;;;;;8.50;40.71;98137.13;8366968;28;20204;-68
2021/04/26 04:25:17;;;;;;;6.73;4.37;;;;;;;8.46;40.45;98145.84;8366669;28;20200;-67
2021/04/26 04:29:19;;;;;;;6.43;3.90;;;;;;;8.46;40.45;98152.75;8366073;28;20196;-68
2021/04/26 04:33:21;;;;;;;6.67;3.67;;;;;;;8.26;41.04;98156.78;8364976;28;20239;-68
2021/04/26 04:37:23;;;;;;;7.13;3.90;;;;;;;8.51;40.67;98148.28;8365536;28;20203;-68
2021/04/26 04:41:25;;;;;;;10.13;3.47;;;;;;;8.65;40.34;98153.84;8365216;28;20566;-68
2021/04/26 04:45:27;;;;;;;8.53;4.10;;;;;;;8.79;39.86;98145.63;8364545;28;20207;-68
2021/04/26 04:49:30;;;;;;;12.07;3.93;;;;;;;8.72;40.12;98149.28;8364812;28;20219;-68
2021/04/26 04:53:31;;;;;;;10.33;4.20;;;;;;;8.66;40.35;98141.75;8365621;28;20207;-68
2021/04/26 04:57:33;;;;;;;7.43;3.77;;;;;;;8.56;40.37;98147.22;8364168;28;20200;-69
2021/04/26 05:01:35;;;;;;;14.70;4.30;;;;;;;8.73;40.48;98153.56;8364642;28;20561;-68
2021/04/26 05:05:38;;;;;;;8.53;3.93;;;;;;;8.84;39.94;98155.81;8365344;28;20226;-68
2021/04/26 05:09:40;;;;;;;9.10;4.40;;;;;;;9.00;39.66;98154.34;8363753;28;20230;-68
2021/04/26 05:13:42;;;;;;;12.90;5.00;;;;;;;9.05;39.74;98157.63;8365305;28;20227;-67
2021/04/26 05:17:44;;;;;;;8.50;4.67;;;;;;;9.14;39.11;98156.47;8363650;28;20224;-67
2021/04/26 05:21:47;;;;;;;6.70;4.47;;;;;;;9.07;39.12;98161.00;8364849;28;20270;-68
2021/04/26 05:25:50;;;;;;;8.13;4.00;;;;;;;9.12;39.04;98156.53;8364747;28;20203;-68
2021/04/26 05:29:53;;;;;;;8.17;3.90;;;;;;;8.91;39.60;98159.84;8363417;28;20223;-68
2021/04/26 05:33:55;;;;;;;5.67;3.60;;;;;;;8.95;38.94;98158.84;8363853;28;20188;-67
2021/04/26 05:38:08;;;;;;;8.77;4.00;;;;;;;9.06;39.25;98156.72;8363895;28;20237;-68
2021/04/26 05:42:10;;;;;;;9.70;3.73;;;;;;;9.57;38.69;98162.66;8364475;28;20218;-68
2021/04/26 05:46:13;;;;;;;9.27;4.07;;;;;;;9.62;38.70;98170.25;8364895;28;20199;-68
2021/04/26 05:50:16;;;;;;;5.80;3.80;;;;;;;9.82;38.34;98167.75;8363759;28;20273;-68
2021/04/26 05:54:18;;;;;;;17.27;2.93;;;;;;;11.97;49.64;98177.78;8363562;28;20195;-70
2021/04/26 05:58:21;;;;;;;7.57;3.70;;;;;;;11.27;35.20;98167.91;8362608;28;20204;-71
2021/04/26 06:02:23;;;;;;;5.83;3.60;;;;;;;11.00;35.26;98175.09;8363534;28;20212;-71
2021/04/26 06:06:27;;;;;;;9.67;3.20;;;;;;;11.00;34.35;98169.94;8362801;28;20206;-71
2021/04/26 06:10:30;;;;;;;4.90;3.17;;;;;;;11.42;34.00;98168.97;8364339;28;20227;-71
2021/04/26 06:14:31;;;;;;;6.07;3.63;;;;;;;11.20;34.10;98174.25;8363041;28;20224;-71
2021/04/26 06:18:33;;;;;;;10.17;3.20;;;;;;;11.49;33.25;98174.72;8363397;28;20226;-71
2021/04/26 06:22:35;;;;;;;6.47;2.93;;;;;;;11.46;32.97;98180.91;8364294;28;20227;-71
2021/04/26 06:26:38;;;;;;;6.17;3.00;;;;;;;11.89;32.52;98176.38;8367413;28;20239;-71
2021/04/26 06:30:41;;;;;;;6.00;3.13;;;;;;;12.11;31.51;98178.81;8369493;28;20239;-69
2021/04/26 06:34:43;;;;;;;7.47;3.30;;;;;;;11.69;31.92;98179.00;8369453;28;20200;-70
2021/04/26 06:38:45;;;;;;;5.97;3.27;;;;;;;12.12;31.84;98177.06;8369712;28;20214;-71
2021/04/26 06:42:48;;;;;;;8.07;3.90;;;;;;;12.42;30.88;98168.72;8370316;28;20215;-71
2021/04/26 06:46:50;;;;;;;7.87;3.50;;;;;;;12.52;30.16;98173.38;8369749;28;20533;-71
2021/04/26 06:50:54;;;;;;;5.37;3.40;;;;;;;12.92;30.18;98160.16;8369062;28;20228;-70
2021/04/26 06:54:55;;;;;;;6.53;3.20;;;;;;;12.65;29.90;98154.59;8369800;28;20210;-72
2021/04/26 06:58:58;;;;;;;4.50;2.70;;;;;;;13.08;29.35;98150.69;8388976;28;20199;-70
2021/04/26 07:03:00;;;;;;;7.07;3.10;;;;;;;13.52;29.03;98151.03;8400907;28;20203;-69
2021/04/26 07:07:02;;;;;;;8.17;3.37;;;;;;;12.61;28.86;98148.72;8402559;28;20195;-71
2021/04/26 07:11:04;;;;;;;5.07;2.90;;;;;;;12.97;29.51;98154.75;8399494;28;20229;-68
2021/04/26 07:15:09;;;;;;;5.40;2.60;;;;;;;13.96;28.34;98146.03;8401670;28;20223;-71
2021/04/26 07:19:11;;;;;;;4.17;2.40;;;;;;;12.93;26.46;98140.19;8402387;28;20214;-71
2021/04/26 07:23:13;;;;;;;6.20;2.10;;;;;;;12.10;26.43;98152.94;8400860;28;20206;-70
2021/04/26 07:27:15;;;;;;;4.73;2.17;;;;;;;13.21;26.63;98145.69;8399663;28;20206;-72
2021/04/26 07:31:17;;;;;;;2.93;2.10;;;;;;;13.57;25.69;98144.66;8400862;28;20242;-72
2021/04/26 07:35:19;;;;;;;7.40;2.00;;;;;;;13.07;24.88;98143.78;8399661;28;20195;-72
2021/04/26 07:39:21;;;;;;;4.37;2.00;;;;;;;13.04;25.69;98143.97;8400795;28;20203;-72
2021/04/26 07:43:23;;;;;;;6.17;2.80;;;;;;;13.28;24.46;98141.81;8399958;28;20203;-72
2021/04/26 07:47:26;;;;;;;3.87;1.90;;;;;;;14.14;24.75;98148.53;8399797;28;20195;-70
2021/04/26 07:51:28;;;;;;;6.13;2.40;;;;;;;13.98;23.87;98144.19;8400193;28;20345;-71
2021/04/26 07:55:30;;;;;;;4.90;2.03;;;;;;;13.56;24.13;98145.59;8399572;28;20199;-70
2021/04/26 07:59:33;;;;;;;4.47;2.20;;;;;;;13.43;24.92;98141.97;8400107;28;20206;-72
2021/04/26 08:03:36;;;;;;;4.70;2.10;;;;;;;14.34;23.28;98137.84;8399975;28;20199;-73
2021/04/26 08:07:38;;;;;;;3.33;2.17;;;;;;;14.43;23.91;98141.66;8400124;28;20207;-72
2021/04/26 08:11:40;;;;;;;5.70;2.20;;;;;;;15.39;23.75;98136.94;8400841;28;20226;-71
2021/04/26 08:15:43;;;;;;;2.57;1.93;;;;;;;16.25;22.76;98136.75;8400535;28;20215;-70
2021/04/26 08:19:46;;;;;;;3.77;1.90;;;;;;;15.61;21.77;98126.00;8401247;28;20230;-71
2021/04/26 08:23:47;;;;;;;4.63;1.93;;;;;;;16.42;22.35;98133.06;8399453;28;20210;-70
2021/04/26 08:27:50;;;;;;;4.47;2.10;;;;;;;16.78;21.82;98124.53;8398772;28;20253;-70
2021/04/26 08:31:52;;;;;;;4.63;2.03;;;;;;;17.26;23.84;98123.94;8398174;28;20322;-59
2021/04/26 08:35:55;;;;;;;6.10;2.10;;;;;;;17.10;20.53;98116.34;8398357;28;20207;-59
2021/04/26 08:39:57;;;;;;;5.37;1.90;;;;;;;17.13;20.09;98107.44;8399557;28;20207;-58
2021/04/26 08:43:59;;;;;;;8.13;2.27;;;;;;;16.44;20.83;98105.03;8397966;28;20215;-59
2021/04/26 08:48:02;;;;;;;3.27;1.93;;;;;;;16.80;20.03;98104.34;8397540;28;20218;-58
2021/04/26 08:52:08;;;;;;;6.10;2.07;;;;;;;16.93;21.39;98104.41;8398055;28;20223;-58
2021/04/26 08:56:10;;;;;;;4.63;1.93;;;;;;;17.41;19.93;98103.72;8397761;28;20211;-58
2021/04/26 09:00:14;;;;;;;3.00;2.10;;;;;;;17.90;19.53;98107.31;8398616;28;20210;-59
2021/04/26 09:04:16;;;;;;;2.87;1.93;;;;;;;18.51;18.51;98102.81;8397390;28;20562;-59
2021/04/26 09:08:23;;;;;;;5.73;2.00;;;;;;;18.46;17.48;98101.47;8399071;28;20207;-59
2021/04/26 09:12:26;;;;;;;6.23;2.13;;;;;;;18.31;18.66;98096.41;8398618;28;20215;-59
2021/04/26 09:16:31;;;;;;;3.53;1.77;;;;;;;18.78;18.00;98093.81;8397366;28;20223;-59
2021/04/26 09:20:33;;;;;;;4.67;1.97;;;;;;;17.51;18.13;98083.81;8399763;28;20210;-59
2021/04/26 09:24:38;;;;;;;3.20;2.00;;;;;;;17.77;18.74;98081.94;8397980;28;20242;-59
2021/04/26 09:28:40;;;;;;;4.10;1.60;;;;;;;18.06;18.49;98075.56;8399279;28;20190;-59
2021/04/26 09:32:44;;;;;;;6.90;2.60;;;;;;;16.67;19.41;98071.31;8397490;28;20238;-59
2021/04/26 09:36:46;;;;;;;6.97;2.20;;;;;;;17.28;19.15;98071.50;8397673;28;20203;-60
2021/04/26 09:41:07;;;;;;;5.03;1.97;;;;;;;18.87;18.81;98072.16;8398185;28;20515;-59
2021/04/26 09:45:28;;;;;;;4.63;1.90;;;;;;;18.12;19.31;98073.31;8398020;28;20195;-59
2021/04/26 09:49:29;;;;;;;6.23;1.83;;;;;;;18.91;18.18;98075.38;8397864;28;20195;-71
2021/04/26 09:53:33;;;;;;;2.80;1.73;;;;;;;19.15;18.21;98064.75;8397758;28;20226;-71
2021/04/26 09:57:36;;;;;;;5.47;1.70;;;;;;;19.10;18.04;98056.41;8406208;28;20673;-72
2021/04/26 10:01:39;;;;;;;4.43;1.90;;;;;;;19.29;18.45;98048.78;8437548;28;20277;-71
2021/04/26 10:05:43;;;;;;;5.23;2.17;;;;;;;18.73;17.22;98046.09;8438746;28;20284;-72
2021/04/26 10:09:48;;;;;;;2.77;1.73;;;;;;;19.69;17.96;98050.84;8437263;28;20271;-72
2021/04/26 10:13:59;;;;;;;5.10;1.40;;;;;;;20.33;17.04;98038.66;8437772;28;20202;-71
2021/04/26 10:18:04;;;;;;;3.87;1.60;;;;;;;19.40;17.42;98034.81;8436817;28;20215;-71
2021/04/26 10:22:07;;;;;;;3.27;1.60;;;;;;;20.16;16.39;98028.72;8437585;28;20211;-72
2021/04/26 10:26:38;;;;;;;2.83;1.67;;;;;;;20.39;17.32;98019.78;8436806;28;20257;-71
2021/04/26 10:30:57;;;;;;;6.00;1.87;;;;;;;20.01;16.53;98025.56;8437783;28;20222;-71
2021/04/26 10:35:13;;;;;;;4.53;1.70;;;;;;;19.89;15.90;98017.72;8438637;28;20281;-71
2021/04/26 10:39:16;;;;;;;2.53;1.53;;;;;;;20.50;15.33;97997.81;8436971;28;20206;-71
2021/04/26 10:43:26;;;;;;;3.90;1.40;;;;;;;20.46;15.95;97993.78;8436746;28;20634;-71
2021/04/26 10:47:35;;;;;;;7.27;1.90;;;;;;;18.15;17.19;97989.25;8437845;28;20194;-71
2021/04/26 10:51:38;;;;;;;3.90;1.83;;;;;;;19.29;16.13;97982.31;8435332;28;20215;-71
2021/04/26 10:55:52;;;;;;;3.57;1.67;;;;;;;20.34;16.96;97964.09;8435883;28;20709;-70
2021/04/26 10:59:54;;;;;;;5.05;1.88;;;;;;;19.02;15.92;97974.81;8435148;28;20494;-71
2021/04/26 11:04:06;;;;;;;3.73;1.77;;;;;;;19.95;17.07;97973.50;8435322;28;20630;-72
2021/04/26 11:08:12;;;;;;;3.67;1.70;;;;;;;20.45;16.91;97974.53;8434563;28;20193;-71
2021/04/26 11:12:32;;;;;;;4.20;1.73;;;;;;;20.83;15.57;97967.81;8435315;28;20566;-73
2021/04/26 11:16:39;;;;;;;4.57;1.70;;;;;;;21.51;15.25;97963.72;8433203;28;20421;-59
2021/04/26 11:20:42;;;;;;;3.90;1.63;;;;;;;21.36;14.82;97953.56;8435270;28;20695;-59
2021/04/26 11:24:52;;;;;;;2.50;1.40;;;;;;;20.98;14.33;97944.59;8435006;28;20213;-59
2021/04/26 11:29:07;;;;;;;3.30;1.63;;;;;;;20.60;14.45;97937.38;8434406;28;20191;-59
2021/04/26 11:33:12;;;;;;;4.03;1.60;;;;;;;19.69;14.40;97924.75;8435915;28;20242;-58
2021/04/26 11:37:15;;;;;;;4.80;1.50;;;;;;;21.16;15.25;97931.63;8434153;28;20230;-59
2021/04/26 11:41:17;;;;;;;4.83;1.50;;;;;;;20.75;15.64;97919.44;8434388;28;20203;-59
2021/04/26 11:45:21;;;;;;;2.77;1.40;;;;;;;20.14;15.11;97921.06;8434372;28;20666;-59
2021/04/26 11:49:24;;;;;;;6.67;1.80;;;;;;;20.30;15.30;97902.22;8435004;28;20653;-59
2021/04/26 11:53:28;;;;;;;3.93;1.67;;;;;;;20.83;15.44;97899.41;8435039;28;20675;-59
2021/04/26 11:57:31;;;;;;;4.23;1.87;;;;;;;21.20;15.07;97887.41;8435115;28;20209;-59
2021/04/26 12:01:33;;;;;;;2.90;1.73;;;;;;;21.31;14.58;97884.66;8434332;28;20199;-59
2021/04/26 12:05:35;;;;;;;2.27;1.50;;;;;;;20.23;14.99;97886.09;8433750;28;20228;-59
2021/04/26 12:09:38;;;;;;;2.23;1.50;;;;;;;20.77;15.20;97878.88;8434902;28;20207;-59
2021/04/26 12:13:40;;;;;;;4.40;1.50;;;;;;;20.91;14.48;97868.94;8434610;28;20589;-59
2021/04/26 12:17:44;;;;;;;2.63;1.50;;;;;;;20.50;15.51;97863.66;8433844;28;20223;-59
2021/04/26 12:21:46;;;;;;;4.60;1.90;;;;;;;21.00;15.44;97853.16;8431946;28;20206;-59
2021/04/26 12:25:50;;;;;;;6.50;1.40;;;;;;;21.38;15.56;97853.31;8432586;28;20217;-59
2021/04/26 12:29:54;;;;;;;6.03;2.40;;;;;;;21.21;14.03;97841.66;8433923;28;20590;-60
2021/04/26 12:34:07;;;;;;;3.87;1.63;;;;;;;21.33;14.70;97840.56;8433884;28;20642;-59
2021/04/26 12:38:08;;;;;;;2.73;1.67;;;;;;;21.63;14.08;97833.53;8433347;28;20183;-59
2021/04/26 12:42:13;;;;;;;3.37;1.70;;;;;;;22.19;13.50;97823.94;8432541;28;20203;-59
2021/04/26 12:46:17;;;;;;;5.83;1.90;;;;;;;20.73;14.49;97824.03;8431999;28;20209;-59
2021/04/26 12:50:24;;;;;;;3.13;1.50;;;;;;;21.45;14.86;97805.22;8432170;28;20203;-59
2021/04/26 12:54:26;;;;;;;8.10;1.67;;;;;;;21.52;15.05;97802.88;8407806;28;20207;-59
2021/04/26 12:58:31;;;;;;;2.70;1.37;;;;;;;21.64;14.78;97800.91;8396881;28;20201;-59
2021/04/26 13:02:33;;;;;;;3.40;1.50;;;;;;;21.81;14.61;97805.44;8399756;28;20195;-59
2021/04/26 13:06:38;;;;;;;4.70;1.50;;;;;;;21.16;13.43;97788.59;8398710;28;20199;-59
2021/04/26 13:10:40;;;;;;;3.23;1.37;;;;;;;20.24;13.50;97793.13;8399547;28;20576;-59
2021/04/26 13:14:43;;;;;;;3.10;1.53;;;;;;;20.30;14.43;97797.03;8398174;28;20219;-59
2021/04/26 13:18:45;;;;;;;5.47;1.67;;;;;;;20.84;14.65;97777.34;8399316;28;20634;-59
2021/04/26 13:22:47;;;;;;;3.70;1.50;;;;;;;20.78;14.09;97780.53;8397788;28;20207;-71
2021/04/26 13:26:57;;;;;;;3.33;1.70;;;;;;;21.16;14.27;97778.91;8398257;28;20211;-70
2021/04/26 13:31:03;;;;;;;4.50;2.00;;;;;;;21.38;13.24;97766.38;8397484;28;20288;-72
2021/04/26 13:35:06;;;;;;;3.10;1.40;;;;;;;20.75;13.78;97745.78;8397655;28;20191;-76
2021/04/26 13:39:13;;;;;;;5.10;1.40;;;;;;;21.01;13.90;97741.63;8397879;28;20203;-72
2021/04/26 13:43:16;;;;;;;3.70;1.70;;;;;;;21.17;13.59;97732.31;8398515;28;20206;-72
2021/04/26 13:47:19;;;;;;;2.63;1.60;;;;;;;20.84;14.29;97722.09;8398048;28;20199;-72
2021/04/26 13:51:21;;;;;;;6.37;1.80;;;;;;;20.27;15.09;97713.16;8397902;28;20261;-71
2021/04/26 13:55:23;;;;;;;7.07;1.70;;;;;;;20.24;14.97;97709.00;8397726;28;20210;-71
2021/04/26 13:59:25;;;;;;;5.80;1.37;;;;;;;20.32;15.61;97705.69;8398130;28;20211;-71
2021/04/26 14:03:28;;;;;;;3.30;1.70;;;;;;;20.63;15.05;97695.91;8398549;28;20203;-71
2021/04/26 14:07:30;;;;;;;6.77;2.00;;;;;;;19.50;14.60;97690.88;8397120;28;20217;-65
2021/04/26 14:11:31;;;;;;;3.70;1.40;;;;;;;19.23;15.83;97686.13;8398406;28;20230;-65
2021/04/26 14:15:33;;;;;;;5.03;1.70;;;;;;;20.13;15.28;97682.81;8398134;28;20219;-65
2021/04/26 14:19:36;;;;;;;2.73;1.30;;;;;;;20.83;15.24;97680.97;8397954;28;20214;-65
2021/04/26 14:23:38;;;;;;;3.93;1.40;;;;;;;20.78;15.18;97667.38;8397795;28;20601;-64
2021/04/26 14:27:40;;;;;;;2.23;1.40;;;;;;;20.84;14.87;97672.09;8398280;28;20210;-65
2021/04/26 14:31:42;;;;;;;5.10;1.50;;;;;;;20.91;14.80;97655.75;8397080;28;20249;-64
2021/04/26 14:35:45;;;;;;;6.57;1.97;;;;;;;19.08;14.51;97657.63;8397671;28;20314;-71
2021/04/26 14:39:47;;;;;;;7.43;1.67;;;;;;;19.91;15.37;97654.94;8396274;28;20290;-72
2021/04/26 14:43:50;;;;;;;2.50;1.50;;;;;;;20.00;15.25;97648.88;8396215;28;20223;-71
2021/04/26 14:47:54;;;;;;;6.77;1.93;;;;;;;19.04;14.66;97631.75;8402754;28;20571;-72
2021/04/26 14:51:57;;;;;;;6.50;1.77;;;;;;;19.55;15.17;97620.38;8403066;28;20222;-71
2021/04/26 14:55:59;;;;;;;4.27;1.80;;;;;;;18.91;14.62;97621.47;8403420;28;20539;-71
2021/04/26 15:00:01;;;;;;;3.27;1.80;;;;;;;18.83;15.04;97616.88;8402136;28;20202;-71
2021/04/26 15:04:03;;;;;;;4.93;1.60;;;;;;;18.72;16.44;97614.28;8401940;28;20206;-72
2021/04/26 15:08:06;;;;;;;7.27;1.70;;;;;;;18.35;15.58;97622.53;8401349;28;20199;-72
2021/04/26 15:12:08;;;;;;;4.80;1.87;;;;;;;18.76;15.40;97611.25;8401219;28;20223;-73
2021/04/26 15:16:10;;;;;;;4.87;1.83;;;;;;;18.51;15.48;97612.47;8403017;28;20223;-73
2021/04/26 15:20:12;;;;;;;5.53;1.43;;;;;;;19.03;16.00;97609.91;8402514;28;20278;-73
2021/04/26 15:24:15;;;;;;;4.20;1.47;;;;;;;19.41;15.40;97611.06;8401485;28;20215;-72
2021/04/26 15:28:17;;;;;;;3.30;1.60;;;;;;;18.52;15.21;97598.41;8402597;28;20207;-72
2021/04/26 15:32:19;;;;;;;4.47;1.60;;;;;;;18.58;15.41;97596.22;8402055;28;20553;-72
2021/04/26 15:36:21;;;;;;;5.87;1.40;;;;;;;19.05;15.69;97589.63;8400988;28;20245;-72
2021/04/26 15:40:25;;;;;;;11.70;1.40;;;;;;;19.19;15.49;97582.38;8402588;28;20206;-72
2021/04/26 15:44:29;;;;;;;4.47;1.60;;;;;;;18.87;14.85;97578.91;8402773;28;20207;-71
2021/04/26 15:48:32;;;;;;;3.37;1.40;;;;;;;18.93;15.07;97586.25;8402939;28;20291;-71
2021/04/26 15:52:34;;;;;;;4.13;1.47;;;;;;;18.67;14.96;97582.34;8402553;28;20229;-71
2021/04/26 15:56:40;;;;;;;7.70;1.53;;;;;;;18.71;14.71;97573.25;8400360;28;20199;-71
2021/04/26 16:00:43;;;;;;;14.33;1.77;;;;;;;18.35;15.00;97580.59;8400315;28;20207;-71
2021/04/26 16:04:50;;;;;;;2.70;1.27;;;;;;;18.52;14.98;97584.44;8399949;28;20233;-71
2021/04/26 16:08:52;;;;;;;3.60;1.37;;;;;;;18.57;15.37;97579.66;8400413;28;20666;-72
2021/04/26 16:12:56;;;;;;;6.70;1.60;;;;;;;18.24;15.62;97575.38;8401667;28;20223;-72
2021/04/26 16:16:58;;;;;;;5.37;2.47;;;;;;;18.51;15.64;97573.13;8400485;28;20226;-72
2021/04/26 16:21:00;;;;;;;4.53;1.20;;;;;;;18.49;15.18;97577.66;8399638;28;20218;-70
2021/04/26 16:25:03;;;;;;;5.43;1.67;;;;;;;18.37;14.79;97570.81;8400392;28;20771;-72
2021/04/26 16:29:06;;;;;;;3.73;1.30;;;;;;;18.38;14.51;97562.00;8399828;28;20677;-71
2021/04/26 16:33:08;;;;;;;9.00;1.80;;;;;;;18.29;14.32;97560.13;8398671;28;20231;-71
2021/04/26 16:37:10;;;;;;;1458.33;956.63;;;;;;;17.82;14.69;97563.03;8398807;28;20236;-71
2021/04/26 16:41:12;;;;;;;40.83;35.73;;;;;;;17.62;15.39;97556.75;8399498;28;20207;-71
2021/04/26 16:45:15;;;;;;;5.63;4.90;;;;;;;17.62;14.87;97540.22;8398895;28;20210;-71
2021/04/26 16:49:17;;;;;;;23.40;21.03;;;;;;;17.33;14.54;97535.50;8399112;28;20203;-71
2021/04/26 16:53:19;;;;;;;382.27;340.10;;;;;;;17.56;15.69;97541.53;8400219;28;20226;-70
2021/04/26 16:57:21;;;;;;;22.27;19.93;;;;;;;17.57;16.37;97532.72;8398939;28;20249;-71
2021/04/26 17:01:24;;;;;;;15.53;6.27;;;;;;;17.53;16.97;97537.34;8397520;28;20195;-69
2021/04/26 17:05:26;;;;;;;5.97;1.50;;;;;;;17.15;14.45;97537.75;8399370;28;20194;-71
2021/04/26 17:09:28;;;;;;;5.60;1.43;;;;;;;17.01;14.63;97538.84;8398504;28;20210;-72
2021/04/26 17:13:30;;;;;;;1999.90;999.90;;;;;;;17.18;22.87;97532.28;8397583;28;20227;-70
2021/04/26 17:17:32;;;;;;;1338.60;653.23;;;;;;;17.14;20.24;97528.25;8397861;28;20223;-71
2021/04/26 17:21:34;;;;;;;1935.67;902.03;;;;;;;17.66;23.98;97523.28;8397982;28;20571;-71
2021/04/26 17:25:36;;;;;;;1839.97;922.90;;;;;;;17.49;20.39;97514.16;8399014;28;20657;-71
2021/04/26 17:29:38;;;;;;;447.27;256.23;;;;;;;17.16;18.56;97513.28;8397526;28;20253;-71
2021/04/26 17:33:41;;;;;;;460.80;256.67;;;;;;;17.35;20.04;97517.88;8397294;28;20239;-71
2021/04/26 17:37:43;;;;;;;1999.90;994.33;;;;;;;17.47;23.96;97511.66;8398657;28;20226;-70
2021/04/26 17:41:45;;;;;;;1999.90;776.73;;;;;;;17.65;18.50;97514.63;8397039;28;20207;-70
2021/04/26 17:45:47;;;;;;;1365.50;577.33;;;;;;;17.39;18.03;97521.94;8398619;28;20534;-71
2021/04/26 17:49:50;;;;;;;859.03;363.13;;;;;;;17.26;18.03;97524.66;8397601;28;20199;-70
2021/04/26 17:53:52;;;;;;;385.37;168.40;;;;;;;16.92;19.31;97527.28;8399018;28;20229;-71
2021/04/26 17:57:53;;;;;;;54.67;23.63;;;;;;;16.87;17.90;97532.06;8397974;28;20195;-71
2021/04/26 18:01:56;;;;;;;101.30;41.27;;;;;;;17.33;17.64;97527.66;8397339;28;20718;-71
2021/04/26 18:05:59;;;;;;;75.37;22.60;;;;;;;16.89;17.87;97535.38;8397276;28;20459;-70
2021/04/26 18:10:01;;;;;;;50.30;20.80;;;;;;;16.37;18.47;97548.00;8396832;28;20207;-71
2021/04/26 18:14:03;;;;;;;118.07;39.60;;;;;;;16.56;19.41;97546.59;8397073;28;20615;-71
2021/04/26 18:18:05;;;;;;;15.10;5.77;;;;;;;16.85;18.61;97551.41;8395568;28;20544;-71
2021/04/26 18:22:08;;;;;;;103.30;40.57;;;;;;;16.75;18.75;97567.81;8399730;28;20591;-70
2021/04/26 18:26:10;;;;;;;32.23;13.00;;;;;;;16.79;21.48;97571.00;8401506;28;20309;-71
2021/04/26 18:30:16;;;;;;;234.10;90.80;;;;;;;16.52;20.40;97564.28;8401354;28;20238;-60
2021/04/26 18:34:18;;;;;;;7.70;2.50;;;;;;;16.31;18.66;97563.28;8402782;28;20215;-59
2021/04/26 18:38:20;;;;;;;117.30;50.57;;;;;;;16.32;22.34;97565.78;8401293;28;20222;-64
2021/04/26 18:42:23;;;;;;;140.73;61.73;;;;;;;16.22;20.94;97567.38;8400898;28;20212;-69
2021/04/26 18:46:25;;;;;;;9.63;2.80;;;;;;;15.97;19.14;97571.81;8402545;28;20203;-69
2021/04/26 18:50:27;;;;;;;3.63;1.83;;;;;;;15.52;19.48;97579.34;8401846;28;20627;-71
2021/04/26 18:54:31;;;;;;;32.53;10.67;;;;;;;15.53;20.31;97583.63;8400728;28;20222;-70
2021/04/26 18:58:34;;;;;;;4.00;2.00;;;;;;;15.37;19.82;97573.44;8401409;28;20206;-70
2021/04/26 19:02:35;;;;;;;9.67;2.30;;;;;;;15.13;20.29;97580.34;8396250;28;20222;-70